RYR29FJ LIRA-LHBP
Flight info
| Callsign | RYR29FJ |
|---|---|
| Flight time | 1h 11m |
| Altitude | 38000 |
| Route | TIBER DCT NIKOL/N0452F390 DCT KULEN DCT KOPRY DCT ULZAK |
| Aircraft | B738/M-SDE2E3FGHIRWXY/LB1 |
Departure
| Time | 2026-05-04 13:14 |
|---|---|
| Airport | Ciampino–G. B. Pastine International Airport (LIRA) |
Arrival
| Time | 2026-05-04 14:25 |
|---|---|
| Airport | Budapest Liszt Ferenc International Airport (LHBP) |
| Time | Latitude | Longitude | Altitude | Speed | Heading |
|---|---|---|---|---|---|
| 2026-05-04 12:54 | 41.80068 | 12.59024 | 405 ft | 0 kts | 123° |
| 2026-05-04 13:07 | 41.80071 | 12.59017 | 401 ft | 4 kts | 122° |
| 2026-05-04 13:07 | 41.80085 | 12.58993 | 405 ft | 1 kts | 142° |
| 2026-05-04 13:07 | 41.80101 | 12.58972 | 405 ft | 4 kts | 110° |
| 2026-05-04 13:07 | 41.80100 | 12.58941 | 400 ft | 4 kts | 57° |
| 2026-05-04 13:08 | 41.80096 | 12.58934 | 402 ft | 1 kts | 53° |
| 2026-05-04 13:10 | 41.80103 | 12.58947 | 402 ft | 7 kts | 53° |
| 2026-05-04 13:10 | 41.80150 | 12.59029 | 405 ft | 13 kts | 52° |
| 2026-05-04 13:10 | 41.80212 | 12.59087 | 406 ft | 11 kts | 353° |
| 2026-05-04 13:11 | 41.80279 | 12.59044 | 406 ft | 11 kts | 331° |
| 2026-05-04 13:11 | 41.80347 | 12.58997 | 403 ft | 12 kts | 333° |
| 2026-05-04 13:11 | 41.80426 | 12.58942 | 406 ft | 14 kts | 333° |
| 2026-05-04 13:11 | 41.80525 | 12.58874 | 404 ft | 17 kts | 333° |
| 2026-05-04 13:12 | 41.80633 | 12.58799 | 406 ft | 16 kts | 333° |
| 2026-05-04 13:12 | 41.80693 | 12.58760 | 406 ft | 8 kts | 342° |
| 2026-05-04 13:12 | 41.80728 | 12.58775 | 407 ft | 0 kts | 41° |
| 2026-05-04 13:13 | 41.80734 | 12.58784 | 404 ft | 5 kts | 53° |
| 2026-05-04 13:13 | 41.80760 | 12.58845 | 415 ft | 9 kts | 61° |
| 2026-05-04 13:13 | 41.80746 | 12.58923 | 411 ft | 14 kts | 145° |
| 2026-05-04 13:13 | 41.80464 | 12.59119 | 414 ft | 82 kts | 153° |
| 2026-05-04 13:14 | 41.79752 | 12.59610 | 416 ft | 145 kts | 152° |
| 2026-05-04 13:14 | 41.78753 | 12.60273 | 827 ft | 164 kts | 156° |
| 2026-05-04 13:14 | 41.77721 | 12.60872 | 1782 ft | 157 kts | 168° |
| 2026-05-04 13:14 | 41.76634 | 12.60924 | 2570 ft | 162 kts | 188° |
| 2026-05-04 13:15 | 41.75475 | 12.60329 | 2944 ft | 198 kts | 209° |
| 2026-05-04 13:15 | 41.74393 | 12.58992 | 2933 ft | 222 kts | 234° |
| 2026-05-04 13:15 | 41.73842 | 12.57072 | 2980 ft | 229 kts | 261° |
| 2026-05-04 13:15 | 41.74039 | 12.55007 | 2972 ft | 227 kts | 292° |
| 2026-05-04 13:16 | 41.74958 | 12.53314 | 3027 ft | 228 kts | 321° |
| 2026-05-04 13:16 | 41.76394 | 12.52379 | 3271 ft | 234 kts | 346° |
| 2026-05-04 13:16 | 41.77996 | 12.51869 | 4028 ft | 238 kts | 347° |
| 2026-05-04 13:16 | 41.79618 | 12.51347 | 4804 ft | 238 kts | 346° |
| 2026-05-04 13:17 | 41.81244 | 12.50789 | 5598 ft | 242 kts | 344° |
| 2026-05-04 13:17 | 41.82903 | 12.50394 | 6343 ft | 249 kts | 3° |
| 2026-05-04 13:17 | 41.84709 | 12.50739 | 6638 ft | 276 kts | 11° |
| 2026-05-04 13:17 | 41.86650 | 12.51240 | 7154 ft | 290 kts | 12° |
| 2026-05-04 13:18 | 41.88650 | 12.51751 | 7960 ft | 294 kts | 11° |
| 2026-05-04 13:18 | 41.90672 | 12.52248 | 8819 ft | 296 kts | 11° |
| 2026-05-04 13:18 | 41.92713 | 12.52732 | 9628 ft | 300 kts | 10° |
| 2026-05-04 13:18 | 41.94781 | 12.53209 | 10412 ft | 304 kts | 9° |
| 2026-05-04 13:19 | 41.96937 | 12.53697 | 10705 ft | 327 kts | 9° |
| 2026-05-04 13:19 | 41.99230 | 12.54209 | 10898 ft | 350 kts | 9° |
| 2026-05-04 13:19 | 42.01743 | 12.54768 | 11080 ft | 372 kts | 9° |
| 2026-05-04 13:19 | 42.04323 | 12.55337 | 11469 ft | 385 kts | 8° |
| 2026-05-04 13:20 | 42.06986 | 12.55926 | 12124 ft | 390 kts | 8° |
| 2026-05-04 13:20 | 42.09679 | 12.56523 | 12820 ft | 394 kts | 8° |
| 2026-05-04 13:20 | 42.12401 | 12.57126 | 13518 ft | 399 kts | 8° |
| 2026-05-04 13:20 | 42.15157 | 12.57737 | 14199 ft | 404 kts | 7° |
| 2026-05-04 13:21 | 42.17941 | 12.58354 | 14951 ft | 404 kts | 7° |
| 2026-05-04 13:21 | 42.20720 | 12.58971 | 15718 ft | 406 kts | 7° |
| 2026-05-04 13:21 | 42.23515 | 12.59593 | 16416 ft | 409 kts | 8° |
| 2026-05-04 13:21 | 42.26295 | 12.60519 | 17110 ft | 415 kts | 17° |
| 2026-05-04 13:22 | 42.29011 | 12.61907 | 17790 ft | 419 kts | 19° |
| 2026-05-04 13:22 | 42.31730 | 12.63381 | 18424 ft | 423 kts | 19° |
| 2026-05-04 13:22 | 42.34467 | 12.64887 | 18984 ft | 427 kts | 19° |
| 2026-05-04 13:22 | 42.37232 | 12.66405 | 19573 ft | 429 kts | 19° |
| 2026-05-04 13:23 | 42.40008 | 12.67920 | 20160 ft | 432 kts | 19° |
| 2026-05-04 13:23 | 42.42810 | 12.69440 | 20720 ft | 436 kts | 19° |
| 2026-05-04 13:23 | 42.45639 | 12.70965 | 21266 ft | 439 kts | 19° |
| 2026-05-04 13:23 | 42.48489 | 12.72497 | 21796 ft | 442 kts | 19° |
| 2026-05-04 13:24 | 42.51350 | 12.74034 | 22345 ft | 444 kts | 19° |
| 2026-05-04 13:24 | 42.54234 | 12.75583 | 22832 ft | 448 kts | 19° |
| 2026-05-04 13:24 | 42.57145 | 12.77147 | 23291 ft | 451 kts | 19° |
| 2026-05-04 13:25 | 42.62968 | 12.80282 | 24185 ft | 456 kts | 19° |
| 2026-05-04 13:25 | 42.65931 | 12.81880 | 24571 ft | 458 kts | 19° |
| 2026-05-04 13:25 | 42.68901 | 12.83483 | 24967 ft | 461 kts | 19° |
| 2026-05-04 13:25 | 42.71892 | 12.85101 | 25353 ft | 463 kts | 19° |
| 2026-05-04 13:26 | 42.74892 | 12.86725 | 25721 ft | 466 kts | 19° |
| 2026-05-04 13:26 | 42.77907 | 12.88358 | 26090 ft | 469 kts | 20° |
| 2026-05-04 13:26 | 42.80958 | 12.90012 | 26452 ft | 471 kts | 20° |
| 2026-05-04 13:26 | 42.84012 | 12.91670 | 26802 ft | 473 kts | 20° |
| 2026-05-04 13:27 | 42.87076 | 12.93335 | 27131 ft | 476 kts | 20° |
| 2026-05-04 13:27 | 42.90160 | 12.95012 | 27458 ft | 478 kts | 20° |
| 2026-05-04 13:27 | 42.93261 | 12.96701 | 27789 ft | 480 kts | 20° |
| 2026-05-04 13:27 | 42.96374 | 12.98399 | 28103 ft | 483 kts | 20° |
| 2026-05-04 13:28 | 42.99507 | 13.00108 | 28405 ft | 485 kts | 20° |
| 2026-05-04 13:28 | 43.02638 | 13.01819 | 28824 ft | 484 kts | 20° |
| 2026-05-04 13:28 | 43.05757 | 13.03527 | 29375 ft | 481 kts | 20° |
| 2026-05-04 13:28 | 43.08862 | 13.05228 | 29874 ft | 479 kts | 20° |
| 2026-05-04 13:29 | 43.11953 | 13.06922 | 30300 ft | 478 kts | 20° |
| 2026-05-04 13:29 | 43.15044 | 13.08618 | 30671 ft | 477 kts | 20° |
| 2026-05-04 13:29 | 43.18083 | 13.10287 | 31085 ft | 475 kts | 20° |
| 2026-05-04 13:29 | 43.21144 | 13.11971 | 31526 ft | 473 kts | 20° |
| 2026-05-04 13:30 | 43.24192 | 13.13649 | 31938 ft | 471 kts | 20° |
| 2026-05-04 13:30 | 43.27229 | 13.15323 | 32328 ft | 470 kts | 20° |
| 2026-05-04 13:30 | 43.30255 | 13.16992 | 32698 ft | 469 kts | 20° |
| 2026-05-04 13:30 | 43.33284 | 13.18665 | 33097 ft | 468 kts | 20° |
| 2026-05-04 13:31 | 43.36295 | 13.20330 | 33496 ft | 466 kts | 20° |
| 2026-05-04 13:31 | 43.39301 | 13.21994 | 33863 ft | 465 kts | 20° |
| 2026-05-04 13:31 | 43.42306 | 13.23659 | 34205 ft | 464 kts | 20° |
| 2026-05-04 13:31 | 43.45298 | 13.25318 | 34500 ft | 463 kts | 20° |
| 2026-05-04 13:32 | 43.48284 | 13.26976 | 34767 ft | 464 kts | 20° |
| 2026-05-04 13:32 | 43.51279 | 13.28640 | 35032 ft | 464 kts | 20° |
| 2026-05-04 13:32 | 43.54266 | 13.30302 | 35319 ft | 463 kts | 20° |
| 2026-05-04 13:32 | 43.57256 | 13.31968 | 35599 ft | 463 kts | 19° |
| 2026-05-04 13:33 | 43.60236 | 13.33630 | 35861 ft | 463 kts | 19° |
| 2026-05-04 13:33 | 43.63226 | 13.35300 | 36099 ft | 463 kts | 19° |
| 2026-05-04 13:33 | 43.66211 | 13.36968 | 36370 ft | 462 kts | 19° |
| 2026-05-04 13:33 | 43.69192 | 13.38635 | 36627 ft | 462 kts | 19° |
| 2026-05-04 13:34 | 43.72173 | 13.40306 | 36882 ft | 462 kts | 19° |
| 2026-05-04 13:34 | 43.75149 | 13.41974 | 37143 ft | 461 kts | 19° |
| 2026-05-04 13:34 | 43.78116 | 13.43640 | 37401 ft | 460 kts | 18° |
| 2026-05-04 13:34 | 43.81088 | 13.45310 | 37676 ft | 459 kts | 18° |
| 2026-05-04 13:35 | 43.84001 | 13.46949 | 37929 ft | 458 kts | 18° |
| 2026-05-04 13:35 | 43.89932 | 13.50288 | 38081 ft | 462 kts | 18° |
| 2026-05-04 13:36 | 43.95866 | 13.53640 | 38081 ft | 458 kts | 18° |
| 2026-05-04 13:36 | 44.01749 | 13.56970 | 38085 ft | 455 kts | 18° |
| 2026-05-04 13:37 | 44.07603 | 13.60290 | 38089 ft | 453 kts | 18° |
| 2026-05-04 13:37 | 44.13434 | 13.63603 | 38089 ft | 452 kts | 19° |
| 2026-05-04 13:38 | 44.19251 | 13.66946 | 38090 ft | 454 kts | 22° |
| 2026-05-04 13:38 | 44.24528 | 13.71887 | 38086 ft | 463 kts | 41° |
| 2026-05-04 13:39 | 44.28963 | 13.78459 | 38097 ft | 467 kts | 45° |
| 2026-05-04 13:39 | 44.33307 | 13.85163 | 38103 ft | 469 kts | 45° |
| 2026-05-04 13:40 | 44.37751 | 13.91953 | 38103 ft | 471 kts | 45° |
| 2026-05-04 13:40 | 44.42176 | 13.98656 | 38103 ft | 472 kts | 45° |
| 2026-05-04 13:41 | 44.46638 | 14.05410 | 38103 ft | 473 kts | 45° |
| 2026-05-04 13:41 | 44.51098 | 14.12175 | 38102 ft | 472 kts | 45° |
| 2026-05-04 13:42 | 44.57755 | 14.22310 | 38103 ft | 470 kts | 45° |
| 2026-05-04 13:42 | 44.62171 | 14.29054 | 38108 ft | 469 kts | 45° |
| 2026-05-04 13:43 | 44.65837 | 14.34666 | 38110 ft | 468 kts | 45° |
| 2026-05-04 13:43 | 44.70223 | 14.41395 | 38120 ft | 467 kts | 45° |
| 2026-05-04 13:44 | 44.74607 | 14.48135 | 38118 ft | 466 kts | 45° |
| 2026-05-04 13:44 | 44.78971 | 14.54862 | 38112 ft | 465 kts | 45° |
| 2026-05-04 13:45 | 44.83321 | 14.61584 | 38117 ft | 464 kts | 45° |
| 2026-05-04 13:45 | 44.87665 | 14.68313 | 38120 ft | 463 kts | 46° |
| 2026-05-04 13:46 | 44.91973 | 14.75001 | 38123 ft | 463 kts | 46° |
| 2026-05-04 13:46 | 44.96296 | 14.81730 | 38117 ft | 463 kts | 46° |
| 2026-05-04 13:47 | 45.00622 | 14.88480 | 38119 ft | 463 kts | 46° |
| 2026-05-04 13:47 | 45.04941 | 14.95236 | 38116 ft | 463 kts | 46° |
| 2026-05-04 13:48 | 45.09264 | 15.02014 | 38107 ft | 464 kts | 46° |
| 2026-05-04 13:48 | 45.13584 | 15.08803 | 38099 ft | 464 kts | 46° |
| 2026-05-04 13:49 | 45.17885 | 15.15607 | 38087 ft | 464 kts | 47° |
| 2026-05-04 13:49 | 45.22105 | 15.22551 | 38074 ft | 464 kts | 47° |
| 2026-05-04 13:50 | 45.26288 | 15.29525 | 38072 ft | 464 kts | 47° |
| 2026-05-04 13:50 | 45.30475 | 15.36498 | 38056 ft | 464 kts | 47° |
| 2026-05-04 13:51 | 45.34663 | 15.43467 | 38050 ft | 463 kts | 47° |
| 2026-05-04 13:51 | 45.38825 | 15.50404 | 38040 ft | 463 kts | 47° |
| 2026-05-04 13:52 | 45.45084 | 15.60867 | 38032 ft | 462 kts | 47° |
| 2026-05-04 13:53 | 45.49252 | 15.67855 | 38031 ft | 461 kts | 47° |
| 2026-05-04 13:53 | 45.53399 | 15.74828 | 38036 ft | 460 kts | 47° |
| 2026-05-04 13:54 | 45.59600 | 15.85288 | 38036 ft | 459 kts | 47° |
| 2026-05-04 13:55 | 45.65757 | 15.95712 | 38050 ft | 458 kts | 48° |
| 2026-05-04 13:55 | 45.71897 | 16.06146 | 38049 ft | 457 kts | 48° |
| 2026-05-04 13:56 | 45.75992 | 16.13126 | 38053 ft | 457 kts | 48° |
| 2026-05-04 13:57 | 45.82106 | 16.23580 | 38048 ft | 456 kts | 48° |
| 2026-05-04 13:58 | 45.90225 | 16.37523 | 38041 ft | 454 kts | 48° |
| 2026-05-04 13:58 | 45.96291 | 16.47988 | 38038 ft | 454 kts | 48° |
| 2026-05-04 13:59 | 46.00333 | 16.54983 | 38039 ft | 454 kts | 48° |
| 2026-05-04 14:00 | 46.06359 | 16.65444 | 38027 ft | 454 kts | 48° |
| 2026-05-04 14:00 | 46.12390 | 16.75952 | 38049 ft | 453 kts | 48° |
| 2026-05-04 14:01 | 46.16396 | 16.82955 | 38040 ft | 453 kts | 48° |
| 2026-05-04 14:02 | 46.22394 | 16.93472 | 38041 ft | 452 kts | 49° |
| 2026-05-04 14:02 | 46.26331 | 17.00551 | 38060 ft | 452 kts | 49° |
| 2026-05-04 14:03 | 46.30202 | 17.07624 | 38045 ft | 451 kts | 49° |
| 2026-05-04 14:03 | 46.34097 | 17.14748 | 38062 ft | 450 kts | 49° |
| 2026-05-04 14:04 | 46.39925 | 17.25413 | 38053 ft | 449 kts | 49° |
| 2026-05-04 14:04 | 46.43799 | 17.32517 | 38056 ft | 449 kts | 49° |
| 2026-05-04 14:05 | 46.49579 | 17.43152 | 38051 ft | 449 kts | 50° |
| 2026-05-04 14:06 | 46.53464 | 17.50320 | 37392 ft | 454 kts | 50° |
| 2026-05-04 14:06 | 46.55410 | 17.53920 | 36788 ft | 451 kts | 50° |
| 2026-05-04 14:06 | 46.57348 | 17.57510 | 36186 ft | 450 kts | 50° |
| 2026-05-04 14:06 | 46.59281 | 17.61096 | 35515 ft | 450 kts | 50° |
| 2026-05-04 14:07 | 46.61219 | 17.64692 | 34830 ft | 452 kts | 50° |
| 2026-05-04 14:07 | 46.63131 | 17.68247 | 34145 ft | 453 kts | 50° |
| 2026-05-04 14:07 | 46.65102 | 17.71916 | 33322 ft | 454 kts | 50° |
| 2026-05-04 14:07 | 46.67024 | 17.75498 | 32548 ft | 455 kts | 50° |
| 2026-05-04 14:08 | 46.68974 | 17.79136 | 31768 ft | 456 kts | 50° |
| 2026-05-04 14:08 | 46.70924 | 17.82780 | 30972 ft | 458 kts | 50° |
| 2026-05-04 14:08 | 46.72881 | 17.86443 | 30152 ft | 460 kts | 50° |
| 2026-05-04 14:08 | 46.74874 | 17.90177 | 29141 ft | 462 kts | 50° |
| 2026-05-04 14:09 | 46.78824 | 17.97593 | 27199 ft | 464 kts | 51° |
| 2026-05-04 14:09 | 46.80796 | 18.01303 | 26436 ft | 461 kts | 51° |
| 2026-05-04 14:10 | 46.84656 | 18.08585 | 25057 ft | 452 kts | 51° |
| 2026-05-04 14:10 | 46.86575 | 18.12211 | 24365 ft | 449 kts | 51° |
| 2026-05-04 14:10 | 46.88481 | 18.15813 | 23666 ft | 446 kts | 52° |
| 2026-05-04 14:10 | 46.90374 | 18.19397 | 22864 ft | 443 kts | 52° |
| 2026-05-04 14:11 | 46.92249 | 18.22951 | 22133 ft | 439 kts | 52° |
| 2026-05-04 14:11 | 46.95939 | 18.29963 | 20759 ft | 430 kts | 52° |
| 2026-05-04 14:11 | 46.97752 | 18.33414 | 20090 ft | 426 kts | 52° |
| 2026-05-04 14:12 | 46.99546 | 18.36834 | 19427 ft | 422 kts | 52° |
| 2026-05-04 14:12 | 47.01327 | 18.40230 | 18773 ft | 418 kts | 52° |
| 2026-05-04 14:12 | 47.04839 | 18.46945 | 17345 ft | 412 kts | 52° |
| 2026-05-04 14:13 | 47.06571 | 18.50262 | 16666 ft | 408 kts | 53° |
| 2026-05-04 14:13 | 47.08289 | 18.53556 | 15994 ft | 404 kts | 53° |
| 2026-05-04 14:13 | 47.09987 | 18.56815 | 15352 ft | 401 kts | 53° |
| 2026-05-04 14:13 | 47.11676 | 18.60062 | 14704 ft | 398 kts | 53° |
| 2026-05-04 14:14 | 47.13346 | 18.63276 | 14055 ft | 396 kts | 53° |
| 2026-05-04 14:14 | 47.16667 | 18.69676 | 12687 ft | 391 kts | 53° |
| 2026-05-04 14:14 | 47.18413 | 18.72609 | 12324 ft | 378 kts | 42° |
| 2026-05-04 14:15 | 47.22682 | 18.76185 | 11992 ft | 334 kts | 19° |
| 2026-05-04 14:15 | 47.26920 | 18.77868 | 11715 ft | 299 kts | 14° |
| 2026-05-04 14:16 | 47.30874 | 18.79386 | 10886 ft | 291 kts | 14° |
| 2026-05-04 14:16 | 47.32839 | 18.80150 | 10335 ft | 294 kts | 14° |
| 2026-05-04 14:17 | 47.36764 | 18.81687 | 9453 ft | 288 kts | 14° |
| 2026-05-04 14:17 | 47.38695 | 18.82448 | 8950 ft | 288 kts | 14° |
| 2026-05-04 14:17 | 47.42534 | 18.83965 | 8077 ft | 283 kts | 14° |
| 2026-05-04 14:18 | 47.44427 | 18.84714 | 7659 ft | 280 kts | 14° |
| 2026-05-04 14:18 | 47.48167 | 18.86195 | 6749 ft | 279 kts | 14° |
| 2026-05-04 14:19 | 47.51889 | 18.87672 | 5721 ft | 281 kts | 14° |
| 2026-05-04 14:19 | 47.53780 | 18.88494 | 5092 ft | 286 kts | 25° |
| 2026-05-04 14:19 | 47.55381 | 18.90226 | 4509 ft | 287 kts | 45° |
| 2026-05-04 14:19 | 47.56824 | 18.92221 | 4207 ft | 275 kts | 44° |
| 2026-05-04 14:20 | 47.58138 | 18.94072 | 4039 ft | 253 kts | 54° |
| 2026-05-04 14:20 | 47.58698 | 18.96351 | 3996 ft | 218 kts | 96° |
| 2026-05-04 14:20 | 47.58313 | 18.98303 | 3986 ft | 191 kts | 120° |
| 2026-05-04 14:21 | 47.57068 | 19.01756 | 3977 ft | 192 kts | 129° |
| 2026-05-04 14:21 | 47.56294 | 19.03386 | 3770 ft | 196 kts | 130° |
| 2026-05-04 14:21 | 47.55441 | 19.04956 | 3539 ft | 194 kts | 135° |
| 2026-05-04 14:21 | 47.54556 | 19.06429 | 3291 ft | 188 kts | 136° |
| 2026-05-04 14:22 | 47.53678 | 19.07847 | 3033 ft | 188 kts | 137° |
| 2026-05-04 14:22 | 47.52791 | 19.09271 | 2776 ft | 188 kts | 136° |
| 2026-05-04 14:22 | 47.51927 | 19.10694 | 2544 ft | 186 kts | 136° |
| 2026-05-04 14:22 | 47.51055 | 19.12088 | 2282 ft | 181 kts | 137° |
| 2026-05-04 14:23 | 47.49475 | 19.14602 | 1862 ft | 151 kts | 136° |
| 2026-05-04 14:23 | 47.48804 | 19.15722 | 1650 ft | 141 kts | 140° |
| 2026-05-04 14:23 | 47.48145 | 19.16776 | 1403 ft | 143 kts | 134° |
| 2026-05-04 14:24 | 47.47470 | 19.17891 | 1293 ft | 147 kts | 135° |
| 2026-05-04 14:24 | 47.46790 | 19.19012 | 1149 ft | 146 kts | 136° |
| 2026-05-04 14:24 | 47.46122 | 19.20106 | 942 ft | 142 kts | 138° |
| 2026-05-04 14:24 | 47.45438 | 19.21186 | 664 ft | 143 kts | 138° |
| 2026-05-04 14:25 | 47.44772 | 19.22251 | 472 ft | 141 kts | 136° |
| 2026-05-04 14:25 | 47.43778 | 19.23855 | 453 ft | 49 kts | 126° |
| 2026-05-04 14:25 | 47.43663 | 19.24315 | 455 ft | 41 kts | 104° |
| 2026-05-04 14:26 | 47.43568 | 19.24585 | 456 ft | 24 kts | 129° |
| 2026-05-04 14:26 | 47.43460 | 19.24760 | 455 ft | 23 kts | 132° |
| 2026-05-04 14:26 | 47.43357 | 19.24930 | 456 ft | 22 kts | 132° |
| 2026-05-04 14:26 | 47.43255 | 19.25095 | 456 ft | 21 kts | 128° |
| 2026-05-04 14:27 | 47.43269 | 19.25288 | 456 ft | 21 kts | 45° |
| 2026-05-04 14:27 | 47.43370 | 19.25421 | 456 ft | 20 kts | 43° |
| 2026-05-04 14:27 | 47.43471 | 19.25559 | 456 ft | 19 kts | 41° |
| 2026-05-04 14:27 | 47.43545 | 19.25700 | 456 ft | 15 kts | 102° |
| 2026-05-04 14:28 | 47.43486 | 19.25821 | 456 ft | 14 kts | 121° |
| 2026-05-04 14:28 | 47.43423 | 19.25930 | 456 ft | 13 kts | 138° |
| 2026-05-04 14:28 | 47.43368 | 19.25931 | 456 ft | 8 kts | 220° |
| 2026-05-04 14:28 | 47.43334 | 19.25886 | 456 ft | 1 kts | 222° |